sensor_id;sensor_type;location;lat;lon;timestamp;P1;durP1;ratioP1;P2;durP2;ratioP2
23009;SDS011;11671;49.990;8.028;2023-01-26T00:02:18;14.02;;;8.32;;
23009;SDS011;11671;49.990;8.028;2023-01-26T00:04:44;11.95;;;7.38;;
23009;SDS011;11671;49.990;8.028;2023-01-26T00:07:09;13.65;;;7.07;;
23009;SDS011;11671;49.990;8.028;2023-01-26T00:09:35;14.27;;;6.68;;
23009;SDS011;11671;49.990;8.028;2023-01-26T00:12:00;13.77;;;7.60;;
23009;SDS011;11671;49.990;8.028;2023-01-26T00:14:26;13.00;;;7.07;;
23009;SDS011;11671;49.990;8.028;2023-01-26T00:19:20;11.63;;;6.18;;
23009;SDS011;11671;49.990;8.028;2023-01-26T00:24:12;14.73;;;7.47;;
23009;SDS011;11671;49.990;8.028;2023-01-26T00:26:37;14.90;;;7.85;;
23009;SDS011;11671;49.990;8.028;2023-01-26T00:29:03;16.80;;;8.82;;
23009;SDS011;11671;49.990;8.028;2023-01-26T00:31:29;12.48;;;6.75;;
23009;SDS011;11671;49.990;8.028;2023-01-26T00:33:55;10.45;;;5.68;;
23009;SDS011;11671;49.990;8.028;2023-01-26T00:36:21;11.40;;;6.65;;
23009;SDS011;11671;49.990;8.028;2023-01-26T00:38:47;10.98;;;6.40;;
23009;SDS011;11671;49.990;8.028;2023-01-26T00:41:16;9.88;;;5.80;;
23009;SDS011;11671;49.990;8.028;2023-01-26T00:44:00;9.48;;;5.60;;
23009;SDS011;11671;49.990;8.028;2023-01-26T00:46:26;14.52;;;6.90;;
23009;SDS011;11671;49.990;8.028;2023-01-26T00:51:18;13.65;;;7.38;;
23009;SDS011;11671;49.990;8.028;2023-01-26T00:53:43;10.73;;;5.13;;
23009;SDS011;11671;49.990;8.028;2023-01-26T00:56:09;11.07;;;5.97;;
23009;SDS011;11671;49.990;8.028;2023-01-26T00:58:35;12.25;;;5.53;;
23009;SDS011;11671;49.990;8.028;2023-01-26T01:01:03;9.25;;;5.55;;
23009;SDS011;11671;49.990;8.028;2023-01-26T01:03:29;10.15;;;4.95;;
23009;SDS011;11671;49.990;8.028;2023-01-26T01:08:20;9.45;;;5.28;;
23009;SDS011;11671;49.990;8.028;2023-01-26T01:10:45;7.68;;;4.63;;
23009;SDS011;11671;49.990;8.028;2023-01-26T01:13:11;9.20;;;5.07;;
23009;SDS011;11671;49.990;8.028;2023-01-26T01:15:37;12.32;;;5.80;;
23009;SDS011;11671;49.990;8.028;2023-01-26T01:18:02;9.52;;;5.00;;
23009;SDS011;11671;49.990;8.028;2023-01-26T01:22:54;8.70;;;4.05;;
23009;SDS011;11671;49.990;8.028;2023-01-26T01:25:19;8.48;;;4.45;;
23009;SDS011;11671;49.990;8.028;2023-01-26T01:27:45;7.03;;;3.53;;
23009;SDS011;11671;49.990;8.028;2023-01-26T01:30:11;6.78;;;2.67;;
23009;SDS011;11671;49.990;8.028;2023-01-26T01:32:37;4.13;;;2.40;;
23009;SDS011;11671;49.990;8.028;2023-01-26T01:35:06;3.97;;;2.10;;
23009;SDS011;11671;49.990;8.028;2023-01-26T01:37:32;4.63;;;1.90;;
23009;SDS011;11671;49.990;8.028;2023-01-26T01:39:58;4.43;;;2.05;;
23009;SDS011;11671;49.990;8.028;2023-01-26T01:42:24;4.60;;;1.92;;
23009;SDS011;11671;49.990;8.028;2023-01-26T01:47:50;5.32;;;2.55;;
23009;SDS011;11671;49.990;8.028;2023-01-26T01:50:20;3.70;;;2.20;;
23009;SDS011;11671;49.990;8.028;2023-01-26T01:52:46;5.13;;;2.33;;
23009;SDS011;11671;49.990;8.028;2023-01-26T02:00:11;5.40;;;2.10;;
23009;SDS011;11671;49.990;8.028;2023-01-26T02:02:38;6.63;;;2.38;;
23009;SDS011;11671;49.990;8.028;2023-01-26T02:05:28;4.78;;;2.25;;
23009;SDS011;11671;49.990;8.028;2023-01-26T02:07:55;5.57;;;2.60;;
23009;SDS011;11671;49.990;8.028;2023-01-26T02:10:22;4.28;;;2.05;;
23009;SDS011;11671;49.990;8.028;2023-01-26T02:12:49;5.22;;;2.80;;
23009;SDS011;11671;49.990;8.028;2023-01-26T02:15:19;4.43;;;2.35;;
23009;SDS011;11671;49.990;8.028;2023-01-26T02:20:15;4.47;;;2.60;;
23009;SDS011;11671;49.990;8.028;2023-01-26T02:23:06;4.43;;;2.10;;
23009;SDS011;11671;49.990;8.028;2023-01-26T02:25:34;4.75;;;2.60;;
23009;SDS011;11671;49.990;8.028;2023-01-26T02:28:07;7.45;;;3.13;;
23009;SDS011;11671;49.990;8.028;2023-01-26T02:32:58;7.95;;;3.22;;
23009;SDS011;11671;49.990;8.028;2023-01-26T02:35:24;7.63;;;3.80;;
23009;SDS011;11671;49.990;8.028;2023-01-26T02:37:50;7.45;;;3.28;;
23009;SDS011;11671;49.990;8.028;2023-01-26T02:43:13;6.40;;;2.80;;
23009;SDS011;11671;49.990;8.028;2023-01-26T02:48:05;8.68;;;3.08;;
23009;SDS011;11671;49.990;8.028;2023-01-26T02:50:32;6.65;;;3.03;;
23009;SDS011;11671;49.990;8.028;2023-01-26T02:52:58;7.13;;;2.97;;
23009;SDS011;11671;49.990;8.028;2023-01-26T02:55:24;6.18;;;2.95;;
23009;SDS011;11671;49.990;8.028;2023-01-26T02:57:52;6.88;;;3.35;;
23009;SDS011;11671;49.990;8.028;2023-01-26T03:00:26;7.15;;;3.50;;
23009;SDS011;11671;49.990;8.028;2023-01-26T03:02:55;6.70;;;3.33;;
23009;SDS011;11671;49.990;8.028;2023-01-26T03:05:22;6.88;;;3.60;;
23009;SDS011;11671;49.990;8.028;2023-01-26T03:10:14;8.50;;;3.87;;
23009;SDS011;11671;49.990;8.028;2023-01-26T03:12:43;6.95;;;3.30;;
23009;SDS011;11671;49.990;8.028;2023-01-26T03:15:09;7.13;;;3.58;;
23009;SDS011;11671;49.990;8.028;2023-01-26T03:18:04;7.32;;;3.95;;
23009;SDS011;11671;49.990;8.028;2023-01-26T03:20:49;7.05;;;3.95;;
23009;SDS011;11671;49.990;8.028;2023-01-26T03:23:33;7.45;;;3.45;;
23009;SDS011;11671;49.990;8.028;2023-01-26T03:26:17;8.43;;;3.83;;
23009;SDS011;11671;49.990;8.028;2023-01-26T03:29:01;6.32;;;3.95;;
23009;SDS011;11671;49.990;8.028;2023-01-26T03:33:52;7.22;;;3.80;;
23009;SDS011;11671;49.990;8.028;2023-01-26T03:36:18;9.73;;;4.57;;
23009;SDS011;11671;49.990;8.028;2023-01-26T03:41:09;9.38;;;4.50;;
23009;SDS011;11671;49.990;8.028;2023-01-26T03:43:53;10.85;;;5.07;;
23009;SDS011;11671;49.990;8.028;2023-01-26T03:46:37;9.45;;;4.72;;
23009;SDS011;11671;49.990;8.028;2023-01-26T03:49:21;10.73;;;5.82;;
23009;SDS011;11671;49.990;8.028;2023-01-26T03:52:05;10.90;;;6.28;;
23009;SDS011;11671;49.990;8.028;2023-01-26T03:54:49;10.70;;;5.10;;
23009;SDS011;11671;49.990;8.028;2023-01-26T03:57:33;13.80;;;6.32;;
23009;SDS011;11671;49.990;8.028;2023-01-26T04:02:24;11.07;;;6.20;;
23009;SDS011;11671;49.990;8.028;2023-01-26T04:05:08;11.20;;;5.53;;
23009;SDS011;11671;49.990;8.028;2023-01-26T04:07:52;9.52;;;5.30;;
23009;SDS011;11671;49.990;8.028;2023-01-26T04:10:36;13.77;;;5.82;;
23009;SDS011;11671;49.990;8.028;2023-01-26T04:15:46;10.70;;;5.45;;
23009;SDS011;11671;49.990;8.028;2023-01-26T04:18:31;10.15;;;6.25;;
23009;SDS011;11671;49.990;8.028;2023-01-26T04:21:15;12.48;;;7.05;;
23009;SDS011;11671;49.990;8.028;2023-01-26T04:23:58;13.45;;;6.45;;
23009;SDS011;11671;49.990;8.028;2023-01-26T04:26:26;9.23;;;5.40;;
23009;SDS011;11671;49.990;8.028;2023-01-26T04:28:59;10.93;;;6.10;;
23009;SDS011;11671;49.990;8.028;2023-01-26T04:31:25;10.77;;;5.47;;
23009;SDS011;11671;49.990;8.028;2023-01-26T04:36:16;11.70;;;5.38;;
23009;SDS011;11671;49.990;8.028;2023-01-26T04:38:42;9.55;;;5.05;;
23009;SDS011;11671;49.990;8.028;2023-01-26T04:41:07;11.52;;;5.25;;
23009;SDS011;11671;49.990;8.028;2023-01-26T04:46:00;11.85;;;4.68;;
23009;SDS011;11671;49.990;8.028;2023-01-26T04:48:27;13.00;;;5.63;;
23009;SDS011;11671;49.990;8.028;2023-01-26T04:50:57;10.93;;;4.97;;
23009;SDS011;11671;49.990;8.028;2023-01-26T04:53:25;9.45;;;4.97;;
23009;SDS011;11671;49.990;8.028;2023-01-26T04:55:51;12.25;;;6.07;;
23009;SDS011;11671;49.990;8.028;2023-01-26T05:00:43;12.85;;;6.03;;
23009;SDS011;11671;49.990;8.028;2023-01-26T05:03:09;12.68;;;6.70;;
23009;SDS011;11671;49.990;8.028;2023-01-26T05:05:35;10.35;;;5.35;;
23009;SDS011;11671;49.990;8.028;2023-01-26T05:08:02;11.65;;;5.55;;
23009;SDS011;11671;49.990;8.028;2023-01-26T05:10:28;8.82;;;5.28;;
23009;SDS011;11671;49.990;8.028;2023-01-26T05:15:20;12.38;;;5.70;;
23009;SDS011;11671;49.990;8.028;2023-01-26T05:17:45;12.73;;;6.35;;
23009;SDS011;11671;49.990;8.028;2023-01-26T05:20:11;12.55;;;6.13;;
23009;SDS011;11671;49.990;8.028;2023-01-26T05:22:37;14.10;;;5.75;;
23009;SDS011;11671;49.990;8.028;2023-01-26T05:25:02;11.60;;;4.72;;
23009;SDS011;11671;49.990;8.028;2023-01-26T05:27:29;10.18;;;4.82;;
23009;SDS011;11671;49.990;8.028;2023-01-26T05:32:25;10.55;;;4.97;;
23009;SDS011;11671;49.990;8.028;2023-01-26T05:34:51;13.30;;;5.93;;
23009;SDS011;11671;49.990;8.028;2023-01-26T05:39:43;11.88;;;5.40;;
23009;SDS011;11671;49.990;8.028;2023-01-26T05:42:09;15.20;;;6.40;;
23009;SDS011;11671;49.990;8.028;2023-01-26T05:44:35;10.90;;;5.50;;
23009;SDS011;11671;49.990;8.028;2023-01-26T05:47:01;12.38;;;6.43;;
23009;SDS011;11671;49.990;8.028;2023-01-26T05:49:26;11.60;;;5.55;;
23009;SDS011;11671;49.990;8.028;2023-01-26T05:51:52;12.15;;;5.90;;
23009;SDS011;11671;49.990;8.028;2023-01-26T05:54:18;9.95;;;5.60;;
23009;SDS011;11671;49.990;8.028;2023-01-26T05:56:43;12.02;;;6.05;;
23009;SDS011;11671;49.990;8.028;2023-01-26T05:59:09;15.88;;;7.45;;
23009;SDS011;11671;49.990;8.028;2023-01-26T06:01:35;13.68;;;6.20;;
23009;SDS011;11671;49.990;8.028;2023-01-26T06:04:00;14.05;;;6.22;;
23009;SDS011;11671;49.990;8.028;2023-01-26T06:06:26;13.38;;;7.05;;
23009;SDS011;11671;49.990;8.028;2023-01-26T06:08:52;15.82;;;7.63;;
23009;SDS011;11671;49.990;8.028;2023-01-26T06:11:17;15.13;;;8.30;;
23009;SDS011;11671;49.990;8.028;2023-01-26T06:13:43;14.18;;;7.40;;
23009;SDS011;11671;49.990;8.028;2023-01-26T06:16:08;12.88;;;7.60;;
23009;SDS011;11671;49.990;8.028;2023-01-26T06:18:34;18.38;;;9.10;;
23009;SDS011;11671;49.990;8.028;2023-01-26T06:21:00;16.08;;;7.10;;
23009;SDS011;11671;49.990;8.028;2023-01-26T06:23:25;14.95;;;8.07;;
23009;SDS011;11671;49.990;8.028;2023-01-26T06:25:51;11.85;;;6.72;;
23009;SDS011;11671;49.990;8.028;2023-01-26T06:28:17;17.55;;;7.95;;
23009;SDS011;11671;49.990;8.028;2023-01-26T06:30:45;20.50;;;10.52;;
23009;SDS011;11671;49.990;8.028;2023-01-26T06:35:36;18.40;;;9.55;;
23009;SDS011;11671;49.990;8.028;2023-01-26T06:38:02;18.73;;;8.95;;
23009;SDS011;11671;49.990;8.028;2023-01-26T06:40:28;18.85;;;9.18;;
23009;SDS011;11671;49.990;8.028;2023-01-26T06:42:53;22.27;;;10.98;;
23009;SDS011;11671;49.990;8.028;2023-01-26T06:45:19;19.23;;;9.75;;
23009;SDS011;11671;49.990;8.028;2023-01-26T06:47:48;15.82;;;8.18;;
23009;SDS011;11671;49.990;8.028;2023-01-26T06:50:16;19.17;;;9.15;;
23009;SDS011;11671;49.990;8.028;2023-01-26T06:52:51;19.02;;;9.05;;
23009;SDS011;11671;49.990;8.028;2023-01-26T06:55:21;17.15;;;8.75;;
23009;SDS011;11671;49.990;8.028;2023-01-26T06:57:52;20.85;;;9.10;;
23009;SDS011;11671;49.990;8.028;2023-01-26T07:00:17;20.15;;;8.77;;
23009;SDS011;11671;49.990;8.028;2023-01-26T07:02:43;19.63;;;9.05;;
23009;SDS011;11671;49.990;8.028;2023-01-26T07:05:09;18.08;;;9.32;;
23009;SDS011;11671;49.990;8.028;2023-01-26T07:07:35;17.65;;;8.85;;
23009;SDS011;11671;49.990;8.028;2023-01-26T07:10:01;15.52;;;8.13;;
23009;SDS011;11671;49.990;8.028;2023-01-26T07:12:36;17.90;;;7.97;;
23009;SDS011;11671;49.990;8.028;2023-01-26T07:15:02;13.52;;;6.72;;
23009;SDS011;11671;49.990;8.028;2023-01-26T07:17:28;20.27;;;8.23;;
23009;SDS011;11671;49.990;8.028;2023-01-26T07:19:55;16.08;;;8.27;;
23009;SDS011;11671;49.990;8.028;2023-01-26T07:22:21;16.73;;;7.85;;
23009;SDS011;11671;49.990;8.028;2023-01-26T07:24:46;14.48;;;7.32;;
23009;SDS011;11671;49.990;8.028;2023-01-26T07:27:12;16.08;;;7.13;;
23009;SDS011;11671;49.990;8.028;2023-01-26T07:29:37;16.98;;;8.13;;
23009;SDS011;11671;49.990;8.028;2023-01-26T07:32:03;15.88;;;7.50;;
23009;SDS011;11671;49.990;8.028;2023-01-26T07:34:29;16.63;;;7.22;;
23009;SDS011;11671;49.990;8.028;2023-01-26T07:36:55;13.90;;;7.15;;
23009;SDS011;11671;49.990;8.028;2023-01-26T07:39:20;17.67;;;7.60;;
23009;SDS011;11671;49.990;8.028;2023-01-26T07:41:46;15.10;;;6.78;;
23009;SDS011;11671;49.990;8.028;2023-01-26T07:44:13;17.25;;;8.20;;
23009;SDS011;11671;49.990;8.028;2023-01-26T07:49:05;17.10;;;7.50;;
23009;SDS011;11671;49.990;8.028;2023-01-26T07:51:31;18.67;;;8.43;;
23009;SDS011;11671;49.990;8.028;2023-01-26T07:53:57;17.95;;;8.25;;
23009;SDS011;11671;49.990;8.028;2023-01-26T07:56:23;15.70;;;6.97;;
23009;SDS011;11671;49.990;8.028;2023-01-26T08:01:15;20.25;;;10.38;;
23009;SDS011;11671;49.990;8.028;2023-01-26T08:03:41;19.80;;;9.40;;
23009;SDS011;11671;49.990;8.028;2023-01-26T08:06:09;19.05;;;7.45;;
23009;SDS011;11671;49.990;8.028;2023-01-26T08:08:36;22.77;;;10.27;;
23009;SDS011;11671;49.990;8.028;2023-01-26T08:11:03;20.73;;;9.35;;
23009;SDS011;11671;49.990;8.028;2023-01-26T08:15:59;19.60;;;8.25;;
23009;SDS011;11671;49.990;8.028;2023-01-26T08:18:36;22.27;;;10.38;;
23009;SDS011;11671;49.990;8.028;2023-01-26T08:21:02;23.77;;;11.00;;
23009;SDS011;11671;49.990;8.028;2023-01-26T08:23:28;25.02;;;10.57;;
23009;SDS011;11671;49.990;8.028;2023-01-26T08:28:19;20.58;;;9.85;;
23009;SDS011;11671;49.990;8.028;2023-01-26T08:30:45;23.15;;;11.35;;
23009;SDS011;11671;49.990;8.028;2023-01-26T08:33:11;21.58;;;9.40;;
23009;SDS011;11671;49.990;8.028;2023-01-26T08:35:36;20.42;;;9.18;;
23009;SDS011;11671;49.990;8.028;2023-01-26T08:38:02;22.90;;;10.05;;
23009;SDS011;11671;49.990;8.028;2023-01-26T08:40:28;17.83;;;8.85;;
23009;SDS011;11671;49.990;8.028;2023-01-26T08:42:53;22.45;;;9.70;;
23009;SDS011;11671;49.990;8.028;2023-01-26T08:47:47;23.10;;;9.52;;
23009;SDS011;11671;49.990;8.028;2023-01-26T08:50:15;24.38;;;9.90;;
23009;SDS011;11671;49.990;8.028;2023-01-26T08:55:06;17.73;;;7.40;;
23009;SDS011;11671;49.990;8.028;2023-01-26T08:57:32;24.73;;;10.07;;
23009;SDS011;11671;49.990;8.028;2023-01-26T09:02:23;22.83;;;9.50;;
23009;SDS011;11671;49.990;8.028;2023-01-26T09:04:49;23.95;;;10.95;;
23009;SDS011;11671;49.990;8.028;2023-01-26T09:07:14;27.25;;;10.73;;
23009;SDS011;11671;49.990;8.028;2023-01-26T09:09:40;27.88;;;10.20;;
23009;SDS011;11671;49.990;8.028;2023-01-26T09:12:05;41.70;;;18.40;;
23009;SDS011;11671;49.990;8.028;2023-01-26T09:14:31;29.77;;;12.93;;
23009;SDS011;11671;49.990;8.028;2023-01-26T09:16:57;23.77;;;10.20;;
23009;SDS011;11671;49.990;8.028;2023-01-26T09:19:22;27.67;;;12.23;;
23009;SDS011;11671;49.990;8.028;2023-01-26T09:21:54;29.65;;;12.10;;
23009;SDS011;11671;49.990;8.028;2023-01-26T09:24:20;29.83;;;12.23;;
23009;SDS011;11671;49.990;8.028;2023-01-26T09:26:46;26.45;;;10.90;;
23009;SDS011;11671;49.990;8.028;2023-01-26T09:31:37;28.52;;;12.27;;
23009;SDS011;11671;49.990;8.028;2023-01-26T09:34:04;42.60;;;19.10;;
23009;SDS011;11671;49.990;8.028;2023-01-26T09:38:55;30.13;;;11.97;;
23009;SDS011;11671;49.990;8.028;2023-01-26T09:41:28;43.88;;;17.92;;
23009;SDS011;11671;49.990;8.028;2023-01-26T09:44:07;30.70;;;13.90;;
23009;SDS011;11671;49.990;8.028;2023-01-26T09:46:40;39.20;;;17.25;;
23009;SDS011;11671;49.990;8.028;2023-01-26T09:49:28;28.35;;;11.95;;
23009;SDS011;11671;49.990;8.028;2023-01-26T09:57:13;33.92;;;14.50;;
23009;SDS011;11671;49.990;8.028;2023-01-26T10:00:05;35.25;;;14.75;;
23009;SDS011;11671;49.990;8.028;2023-01-26T10:08:23;27.80;;;13.02;;
23009;SDS011;11671;49.990;8.028;2023-01-26T10:13:40;46.60;;;21.70;;
23009;SDS011;11671;49.990;8.028;2023-01-26T10:16:12;34.08;;;13.27;;
23009;SDS011;11671;49.990;8.028;2023-01-26T10:19:41;50.22;;;17.83;;
23009;SDS011;11671;49.990;8.028;2023-01-26T10:21:46;50.03;;;19.38;;
23009;SDS011;11671;49.990;8.028;2023-01-26T10:24:14;46.78;;;19.25;;
23009;SDS011;11671;49.990;8.028;2023-01-26T10:26:44;32.72;;;12.65;;
23009;SDS011;11671;49.990;8.028;2023-01-26T10:29:12;39.42;;;16.00;;
23009;SDS011;11671;49.990;8.028;2023-01-26T10:31:39;43.45;;;18.90;;
23009;SDS011;11671;49.990;8.028;2023-01-26T10:34:11;38.05;;;16.52;;
23009;SDS011;11671;49.990;8.028;2023-01-26T10:36:40;37.42;;;12.98;;
23009;SDS011;11671;49.990;8.028;2023-01-26T10:39:09;37.75;;;15.18;;
23009;SDS011;11671;49.990;8.028;2023-01-26T10:41:37;35.67;;;13.23;;
23009;SDS011;11671;49.990;8.028;2023-01-26T10:46:39;34.58;;;13.05;;
23009;SDS011;11671;49.990;8.028;2023-01-26T10:51:39;31.65;;;12.80;;
23009;SDS011;11671;49.990;8.028;2023-01-26T10:56:48;27.17;;;11.88;;
23009;SDS011;11671;49.990;8.028;2023-01-26T10:59:39;27.98;;;11.02;;
23009;SDS011;11671;49.990;8.028;2023-01-26T11:04:35;35.38;;;16.60;;
23009;SDS011;11671;49.990;8.028;2023-01-26T11:09:51;24.52;;;12.10;;
23009;SDS011;11671;49.990;8.028;2023-01-26T11:12:18;28.02;;;11.52;;
23009;SDS011;11671;49.990;8.028;2023-01-26T11:15:00;27.83;;;11.80;;
23009;SDS011;11671;49.990;8.028;2023-01-26T11:17:33;27.38;;;11.15;;
23009;SDS011;11671;49.990;8.028;2023-01-26T11:23:03;26.55;;;11.30;;
23009;SDS011;11671;49.990;8.028;2023-01-26T11:25:49;24.00;;;10.82;;
23009;SDS011;11671;49.990;8.028;2023-01-26T11:31:12;21.05;;;7.78;;
23009;SDS011;11671;49.990;8.028;2023-01-26T11:39:27;18.70;;;8.30;;
23009;SDS011;11671;49.990;8.028;2023-01-26T11:47:54;10.43;;;5.55;;
23009;SDS011;11671;49.990;8.028;2023-01-26T11:50:54;14.52;;;7.47;;
23009;SDS011;11671;49.990;8.028;2023-01-26T11:53:36;12.90;;;6.40;;
23009;SDS011;11671;49.990;8.028;2023-01-26T11:59:24;9.93;;;5.38;;
23009;SDS011;11671;49.990;8.028;2023-01-26T12:02:02;10.50;;;5.38;;
23009;SDS011;11671;49.990;8.028;2023-01-26T12:04:42;9.32;;;5.68;;
23009;SDS011;11671;49.990;8.028;2023-01-26T12:09:47;9.73;;;5.35;;
23009;SDS011;11671;49.990;8.028;2023-01-26T12:12:34;8.90;;;4.80;;
23009;SDS011;11671;49.990;8.028;2023-01-26T12:15:14;14.70;;;5.72;;
23009;SDS011;11671;49.990;8.028;2023-01-26T12:22:57;13.63;;;4.88;;
23009;SDS011;11671;49.990;8.028;2023-01-26T12:25:35;11.05;;;4.93;;
23009;SDS011;11671;49.990;8.028;2023-01-26T12:31:03;9.90;;;5.03;;
23009;SDS011;11671;49.990;8.028;2023-01-26T12:33:39;12.27;;;6.05;;
23009;SDS011;11671;49.990;8.028;2023-01-26T12:38:55;12.45;;;5.47;;
23009;SDS011;11671;49.990;8.028;2023-01-26T12:44:23;12.10;;;6.00;;
23009;SDS011;11671;49.990;8.028;2023-01-26T12:46:58;13.48;;;6.43;;
23009;SDS011;11671;49.990;8.028;2023-01-26T12:55:02;10.50;;;5.25;;
23009;SDS011;11671;49.990;8.028;2023-01-26T12:57:49;10.20;;;5.05;;
23009;SDS011;11671;49.990;8.028;2023-01-26T13:00:27;13.75;;;6.10;;
23009;SDS011;11671;49.990;8.028;2023-01-26T13:03:01;9.55;;;4.75;;
23009;SDS011;11671;49.990;8.028;2023-01-26T13:05:54;10.30;;;5.05;;
23009;SDS011;11671;49.990;8.028;2023-01-26T13:10:55;12.07;;;6.40;;
23009;SDS011;11671;49.990;8.028;2023-01-26T13:18:53;11.35;;;5.85;;
23009;SDS011;11671;49.990;8.028;2023-01-26T13:26:45;10.82;;;5.57;;
23009;SDS011;11671;49.990;8.028;2023-01-26T13:31:52;12.05;;;7.22;;
23009;SDS011;11671;49.990;8.028;2023-01-26T13:34:33;11.43;;;6.82;;
23009;SDS011;11671;49.990;8.028;2023-01-26T13:37:04;10.38;;;6.57;;
23009;SDS011;11671;49.990;8.028;2023-01-26T13:39:36;8.60;;;5.28;;
23009;SDS011;11671;49.990;8.028;2023-01-26T13:47:27;11.90;;;6.35;;
23009;SDS011;11671;49.990;8.028;2023-01-26T13:49:59;13.30;;;5.95;;
23009;SDS011;11671;49.990;8.028;2023-01-26T13:52:25;11.32;;;5.90;;
23009;SDS011;11671;49.990;8.028;2023-01-26T13:54:52;10.52;;;6.15;;
23009;SDS011;11671;49.990;8.028;2023-01-26T13:57:25;16.58;;;6.45;;
23009;SDS011;11671;49.990;8.028;2023-01-26T13:59:53;13.18;;;6.72;;
23009;SDS011;11671;49.990;8.028;2023-01-26T14:02:31;11.13;;;5.95;;
23009;SDS011;11671;49.990;8.028;2023-01-26T14:04:58;11.82;;;6.07;;
23009;SDS011;11671;49.990;8.028;2023-01-26T14:10:18;11.27;;;5.70;;
23009;SDS011;11671;49.990;8.028;2023-01-26T14:12:45;13.52;;;7.35;;
23009;SDS011;11671;49.990;8.028;2023-01-26T14:15:20;17.45;;;7.28;;
23009;SDS011;11671;49.990;8.028;2023-01-26T14:17:58;16.92;;;7.55;;
23009;SDS011;11671;49.990;8.028;2023-01-26T14:20:35;12.73;;;6.88;;
23009;SDS011;11671;49.990;8.028;2023-01-26T14:25:35;12.68;;;6.80;;
23009;SDS011;11671;49.990;8.028;2023-01-26T14:28:01;16.83;;;7.90;;
23009;SDS011;11671;49.990;8.028;2023-01-26T14:30:31;16.40;;;9.73;;
23009;SDS011;11671;49.990;8.028;2023-01-26T14:35:28;14.40;;;7.45;;
23009;SDS011;11671;49.990;8.028;2023-01-26T14:40:53;13.40;;;7.10;;
23009;SDS011;11671;49.990;8.028;2023-01-26T14:43:21;14.77;;;7.78;;
23009;SDS011;11671;49.990;8.028;2023-01-26T14:46:31;14.32;;;7.55;;
23009;SDS011;11671;49.990;8.028;2023-01-26T14:48:45;17.40;;;7.90;;
23009;SDS011;11671;49.990;8.028;2023-01-26T14:51:18;13.90;;;6.88;;
23009;SDS011;11671;49.990;8.028;2023-01-26T14:53:47;14.00;;;6.70;;
23009;SDS011;11671;49.990;8.028;2023-01-26T14:56:18;14.93;;;7.88;;
23009;SDS011;11671;49.990;8.028;2023-01-26T14:58:50;16.55;;;7.68;;
23009;SDS011;11671;49.990;8.028;2023-01-26T15:01:22;16.77;;;7.32;;
23009;SDS011;11671;49.990;8.028;2023-01-26T15:03:49;16.00;;;8.23;;
23009;SDS011;11671;49.990;8.028;2023-01-26T15:06:25;17.42;;;8.57;;
23009;SDS011;11671;49.990;8.028;2023-01-26T15:11:28;18.10;;;8.95;;
23009;SDS011;11671;49.990;8.028;2023-01-26T15:16:54;23.40;;;8.70;;
23009;SDS011;11671;49.990;8.028;2023-01-26T15:19:23;20.88;;;11.35;;
23009;SDS011;11671;49.990;8.028;2023-01-26T15:21:50;20.33;;;9.02;;
23009;SDS011;11671;49.990;8.028;2023-01-26T15:24:16;32.28;;;20.02;;
23009;SDS011;11671;49.990;8.028;2023-01-26T15:26:42;28.95;;;16.88;;
23009;SDS011;11671;49.990;8.028;2023-01-26T15:29:17;23.95;;;12.00;;
23009;SDS011;11671;49.990;8.028;2023-01-26T15:31:53;21.92;;;10.63;;
23009;SDS011;11671;49.990;8.028;2023-01-26T15:35:01;26.92;;;11.27;;
23009;SDS011;11671;49.990;8.028;2023-01-26T15:37:28;27.65;;;11.75;;
23009;SDS011;11671;49.990;8.028;2023-01-26T15:39:55;23.55;;;12.02;;
23009;SDS011;11671;49.990;8.028;2023-01-26T15:42:22;23.27;;;10.73;;
23009;SDS011;11671;49.990;8.028;2023-01-26T15:44:50;22.75;;;11.10;;
23009;SDS011;11671;49.990;8.028;2023-01-26T15:47:16;24.75;;;12.20;;
23009;SDS011;11671;49.990;8.028;2023-01-26T15:52:26;22.08;;;10.10;;
23009;SDS011;11671;49.990;8.028;2023-01-26T15:54:54;22.15;;;10.70;;
23009;SDS011;11671;49.990;8.028;2023-01-26T15:57:20;26.67;;;12.38;;
23009;SDS011;11671;49.990;8.028;2023-01-26T15:59:45;25.83;;;12.57;;
23009;SDS011;11671;49.990;8.028;2023-01-26T16:04:44;28.80;;;12.70;;
23009;SDS011;11671;49.990;8.028;2023-01-26T16:07:10;34.88;;;13.68;;
23009;SDS011;11671;49.990;8.028;2023-01-26T16:09:38;24.60;;;11.23;;
23009;SDS011;11671;49.990;8.028;2023-01-26T16:12:04;24.02;;;10.50;;
23009;SDS011;11671;49.990;8.028;2023-01-26T16:14:29;23.77;;;10.73;;
23009;SDS011;11671;49.990;8.028;2023-01-26T16:19:20;22.50;;;9.93;;
23009;SDS011;11671;49.990;8.028;2023-01-26T16:24:11;24.83;;;10.18;;
23009;SDS011;11671;49.990;8.028;2023-01-26T16:26:37;26.00;;;11.30;;
23009;SDS011;11671;49.990;8.028;2023-01-26T16:29:02;28.17;;;11.93;;
23009;SDS011;11671;49.990;8.028;2023-01-26T16:33:55;26.30;;;10.85;;
23009;SDS011;11671;49.990;8.028;2023-01-26T16:36:21;22.83;;;10.93;;
23009;SDS011;11671;49.990;8.028;2023-01-26T16:41:26;32.50;;;12.55;;
23009;SDS011;11671;49.990;8.028;2023-01-26T16:43:57;26.60;;;12.68;;
23009;SDS011;11671;49.990;8.028;2023-01-26T16:46:24;28.63;;;13.05;;
23009;SDS011;11671;49.990;8.028;2023-01-26T16:48:51;28.27;;;12.98;;
23009;SDS011;11671;49.990;8.028;2023-01-26T16:53:45;28.23;;;12.38;;
23009;SDS011;11671;49.990;8.028;2023-01-26T16:56:12;30.10;;;13.45;;
23009;SDS011;11671;49.990;8.028;2023-01-26T16:58:39;33.38;;;14.73;;
23009;SDS011;11671;49.990;8.028;2023-01-26T17:03:30;54.72;;;21.67;;
23009;SDS011;11671;49.990;8.028;2023-01-26T17:05:56;38.45;;;15.07;;
23009;SDS011;11671;49.990;8.028;2023-01-26T17:08:22;38.28;;;16.05;;
23009;SDS011;11671;49.990;8.028;2023-01-26T17:10:50;34.38;;;15.90;;
23009;SDS011;11671;49.990;8.028;2023-01-26T17:15:42;45.92;;;21.27;;
23009;SDS011;11671;49.990;8.028;2023-01-26T17:18:10;40.60;;;19.45;;
23009;SDS011;11671;49.990;8.028;2023-01-26T17:20:36;40.90;;;17.73;;
23009;SDS011;11671;49.990;8.028;2023-01-26T17:23:02;41.33;;;15.25;;
23009;SDS011;11671;49.990;8.028;2023-01-26T17:25:29;40.78;;;17.88;;
23009;SDS011;11671;49.990;8.028;2023-01-26T17:30:20;42.38;;;18.73;;
23009;SDS011;11671;49.990;8.028;2023-01-26T17:32:45;36.42;;;17.10;;
23009;SDS011;11671;49.990;8.028;2023-01-26T17:35:11;32.47;;;15.95;;
23009;SDS011;11671;49.990;8.028;2023-01-26T17:37:37;32.90;;;15.48;;
23009;SDS011;11671;49.990;8.028;2023-01-26T17:40:04;39.85;;;14.95;;
23009;SDS011;11671;49.990;8.028;2023-01-26T17:42:30;40.35;;;15.23;;
23009;SDS011;11671;49.990;8.028;2023-01-26T17:44:58;34.28;;;15.43;;
23009;SDS011;11671;49.990;8.028;2023-01-26T17:49:50;37.67;;;16.20;;
23009;SDS011;11671;49.990;8.028;2023-01-26T17:54:41;40.30;;;18.15;;
23009;SDS011;11671;49.990;8.028;2023-01-26T17:57:07;42.15;;;16.15;;
23009;SDS011;11671;49.990;8.028;2023-01-26T17:59:33;37.40;;;15.98;;
23009;SDS011;11671;49.990;8.028;2023-01-26T18:04:24;33.42;;;14.38;;
23009;SDS011;11671;49.990;8.028;2023-01-26T18:06:49;33.65;;;16.55;;
23009;SDS011;11671;49.990;8.028;2023-01-26T18:09:15;31.23;;;14.00;;
23009;SDS011;11671;49.990;8.028;2023-01-26T18:11:41;32.08;;;16.85;;
23009;SDS011;11671;49.990;8.028;2023-01-26T18:14:06;31.40;;;14.52;;
23009;SDS011;11671;49.990;8.028;2023-01-26T18:16:32;33.47;;;15.35;;
23009;SDS011;11671;49.990;8.028;2023-01-26T18:23:53;28.63;;;13.85;;
23009;SDS011;11671;49.990;8.028;2023-01-26T18:26:31;31.63;;;14.75;;
23009;SDS011;11671;49.990;8.028;2023-01-26T18:28:58;32.22;;;15.63;;
23009;SDS011;11671;49.990;8.028;2023-01-26T18:33:51;30.75;;;15.07;;
23009;SDS011;11671;49.990;8.028;2023-01-26T18:36:18;34.30;;;16.83;;